Latest Weather Observations for Fawkner Beacon

IDV60801

Issued at 3:42 pm EST Wednesday 20 June 2018 (issued every 10 minutes, with the page automatically refreshed every 10 minutes)

About weather observations | Map of weather stations | Latest weather observations for VIC | Other Formats
Station Details ID: 086376 Name: FAWKNER BEACON Lat: -37.95 Lon: 144.93 Height: 17.0 m
Data from the previous 72 hours. | See also: Recent months for locations in Victoria
Date/Time
EST
Temp
°C
App
Temp
°C
Dew
Point
°C
Rel
Hum
%
Delta-T
°C
Wind Press
QNH
hPa
Press
MSL
hPa
Rain since
9am
mm
Dir  Spd
km/h
Gust
km/h
Spd
kts
Gust
kts
20/03:30pm - - - - - N 28 32 15 17 - - -
20/03:00pm - - - - - N 30 33 16 18 - - -
20/02:30pm - - - - - N 28 33 15 18 - - -
20/02:00pm - - - - - N 28 32 15 17 - - -
20/01:30pm - - - - - N 24 28 13 15 - - -
20/01:00pm - - - - - N 24 30 13 16 - - -
20/12:30pm - - - - - N 19 22 10 12 - - -
20/12:00pm - - - - - NNE 19 22 10 12 - - -
20/11:30am - - - - - N 19 22 10 12 - - -
20/11:00am - - - - - N 22 28 12 15 - - -
20/10:30am - - - - - N 24 28 13 15 - - -
20/10:00am - - - - - N 20 24 11 13 - - -
20/09:30am - - - - - N 19 22 10 12 - - -
20/09:00am - - - - - N 17 20 9 11 - - -
20/08:30am - - - - - N 17 20 9 11 - - -
20/08:00am - - - - - N 15 17 8 9 - - -
20/07:30am - - - - - NNE 15 20 8 11 - - -
20/07:00am - - - - - N 17 22 9 12 - - -
20/06:30am - - - - - N 22 26 12 14 - - -
20/06:00am - - - - - N 26 30 14 16 - - -
20/05:30am - - - - - N 15 20 8 11 - - -
20/05:00am - - - - - NNE 22 24 12 13 - - -
20/04:30am - - - - - NNE 20 24 11 13 - - -
20/04:00am - - - - - NNE 17 20 9 11 - - -
20/03:30am - - - - - NNE 17 20 9 11 - - -
20/03:00am - - - - - N 22 26 12 14 - - -
20/02:30am - - - - - N 19 22 10 12 - - -
20/02:00am - - - - - N 17 22 9 12 - - -
20/01:30am - - - - - NNE 19 22 10 12 - - -
20/01:00am - - - - - NNE 20 22 11 12 - - -
20/12:30am - - - - - N 17 20 9 11 - - -
20/12:00am - - - - - N 19 22 10 12 - - -
 
Date/Time
EST
Temp
°C
App
Temp
°C
Dew
Point
°C
Rel
Hum
%
Delta-T
°C
Wind Press
QNH
hPa
Press
MSL
hPa
Rain since
9am
mm
Dir  Spd
km/h
Gust
km/h
Spd
kts
Gust
kts
19/11:30pm - - - - - N 17 20 9 11 - - -
19/11:00pm - - - - - N 17 22 9 12 - - -
19/10:30pm - - - - - NNE 22 24 12 13 - - -
19/10:00pm - - - - - NNE 22 26 12 14 - - -
19/09:30pm - - - - - NNE 17 20 9 11 - - -
19/09:00pm - - - - - NNE 13 15 7 8 - - -
19/08:30pm - - - - - N 11 13 6 7 - - -
19/08:00pm - - - - - N 11 13 6 7 - - -
19/07:30pm - - - - - NNE 9 11 5 6 - - -
19/07:00pm - - - - - NE 11 13 6 7 - - -
19/06:30pm - - - - - ENE 13 15 7 8 - - -
19/06:00pm - - - - - ENE 13 15 7 8 - - -
19/05:30pm - - - - - E 13 15 7 8 - - -
19/05:00pm - - - - - E 9 11 5 6 - - -
19/04:30pm - - - - - E 11 13 6 7 - - -
19/04:00pm - - - - - ESE 7 9 4 5 - - -
19/03:30pm - - - - - SSW 6 7 3 4 - - -
19/03:00pm - - - - - SSW 7 9 4 5 - - -
19/02:30pm - - - - - WSW 13 15 7 8 - - -
19/02:00pm - - - - - W 19 22 10 12 - - -
19/01:30pm - - - - - WNW 15 20 8 11 - - -
19/01:00pm - - - - - NW 15 20 8 11 - - -
19/12:30pm - - - - - NNE 9 13 5 7 - - -
19/12:00pm - - - - - ESE 9 15 5 8 - - -
19/11:30am - - - - - E 17 22 9 12 - - -
19/11:00am - - - - - E 13 17 7 9 - - -
19/10:30am - - - - - ESE 15 17 8 9 - - -
19/10:00am - - - - - ENE 9 13 5 7 - - -
19/09:30am - - - - - NNE 11 15 6 8 - - -
19/09:00am - - - - - WNW 6 7 3 4 - - -
19/08:30am - - - - - CALM 0 4 0 2 - - -
19/08:00am - - - - - ESE 6 9 3 5 - - -
19/07:30am - - - - - SW 4 7 2 4 - - -
19/07:00am - - - - - NW 9 11 5 6 - - -
19/06:30am - - - - - N 9 9 5 5 - - -
19/06:00am - - - - - N 11 13 6 7 - - -
19/05:30am - - - - - N 4 6 2 3 - - -
19/05:00am - - - - - NE 7 9 4 5 - - -
19/04:30am - - - - - NE 9 11 5 6 - - -
19/04:00am - - - - - NNE 9 11 5 6 - - -
19/03:30am - - - - - NNE 7 9 4 5 - - -
19/03:00am - - - - - E 7 9 4 5 - - -
19/02:30am - - - - - ESE 9 11 5 6 - - -
19/02:00am - - - - - ESE 9 13 5 7 - - -
19/01:30am - - - - - ESE 9 11 5 6 - - -
19/01:00am - - - - - ESE 11 13 6 7 - - -
19/12:30am - - - - - ESE 13 15 7 8 - - -
19/12:00am - - - - - E 13 15 7 8 - - -
 
Date/Time
EST
Temp
°C
App
Temp
°C
Dew
Point
°C
Rel
Hum
%
Delta-T
°C
Wind Press
QNH
hPa
Press
MSL
hPa
Rain since
9am
mm
Dir  Spd
km/h
Gust
km/h
Spd
kts
Gust
kts
18/11:30pm - - - - - E 11 15 6 8 - - -
18/11:00pm - - - - - ESE 13 15 7 8 - - -
18/10:30pm - - - - - ESE 15 20 8 11 - - -
18/10:00pm - - - - - SSE 17 20 9 11 - - -
18/09:30pm - - - - - SSE 15 20 8 11 - - -
18/09:00pm - - - - - SSE 17 20 9 11 - - -
18/08:30pm - - - - - SSE 15 17 8 9 - - -
18/08:00pm - - - - - SSE 17 22 9 12 - - -
18/07:30pm - - - - - SSE 15 20 8 11 - - -
18/07:00pm - - - - - SSE 15 17 8 9 - - -
18/06:30pm - - - - - S 19 24 10 13 - - -
18/06:00pm - - - - - S 20 26 11 14 - - -
18/05:30pm - - - - - S 24 28 13 15 - - -
18/05:00pm - - - - - SSE 24 30 13 16 - - -
18/04:30pm - - - - - S 26 32 14 17 - - -
18/04:00pm - - - - - SSE 24 28 13 15 - - -
18/03:30pm - - - - - S 26 32 14 17 - - -
18/03:00pm - - - - - S 24 30 13 16 - - -
18/02:30pm - - - - - S 24 30 13 16 - - -
18/02:00pm - - - - - SSW 26 32 14 17 - - -
18/01:30pm - - - - - S 24 30 13 16 - - -
18/01:00pm - - - - - SSW 17 20 9 11 - - -
18/12:30pm - - - - - SW 26 30 14 16 - - -
18/12:00pm - - - - - SSW 13 22 7 12 - - -
18/11:30am - - - - - SW 15 17 8 9 - - -
18/11:00am - - - - - SSW 17 22 9 12 - - -
18/10:30am - - - - - S 22 30 12 16 - - -
18/10:00am - - - - - SSW 22 33 12 18 - - -
18/09:30am - - - - - S 22 26 12 14 - - -
18/09:00am - - - - - S 24 30 13 16 - - -
18/08:30am - - - - - SSE 28 32 15 17 - - -
18/08:00am - - - - - SSE 24 30 13 16 - - -
18/07:30am - - - - - SSE 32 39 17 21 - - -
18/07:00am - - - - - SSE 30 35 16 19 - - -
18/06:30am - - - - - SSE 33 39 18 21 - - -
18/06:00am - - - - - SSE 35 43 19 23 - - -
18/05:30am - - - - - SSE 35 43 19 23 - - -
18/05:00am - - - - - SSE 35 41 19 22 - - -
18/04:30am - - - - - S 37 43 20 23 - - -
18/04:00am - - - - - S 39 44 21 24 - - -
18/03:30am - - - - - S 41 48 22 26 - - -
18/03:00am - - - - - S 32 41 17 22 - - -
18/02:30am - - - - - SSE 39 46 21 25 - - -
18/02:00am - - - - - S 37 46 20 25 - - -
18/01:30am - - - - - SSE 39 46 21 25 - - -
18/01:00am - - - - - S 39 46 21 25 - - -
18/12:30am - - - - - S 43 48 23 26 - - -
18/12:00am - - - - - S 39 52 21 28 - - -
 
Date/Time
EST
Temp
°C
App
Temp
°C
Dew
Point
°C
Rel
Hum
%
Delta-T
°C
Wind Press
QNH
hPa
Press
MSL
hPa
Rain since
9am
mm
Dir  Spd
km/h
Gust
km/h
Spd
kts
Gust
kts
17/11:30pm - - - - - SSW 41 50 22 27 - - -
17/11:00pm - - - - - S 46 57 25 31 - - -
17/10:30pm - - - - - S 37 50 20 27 - - -
17/10:00pm - - - - - S 37 46 20 25 - - -
17/09:30pm - - - - - S 37 46 20 25 - - -
17/09:11pm - - - - - S 41 61 22 33 - - -
17/09:00pm - - - - - S 43 50 23 27 - - -
17/08:30pm - - - - - S 43 50 23 27 - - -
17/08:00pm - - - - - S 46 59 25 32 - - -
17/07:47pm - - - - - S 46 65 25 35 - - -
17/07:30pm - - - - - S 44 50 24 27 - - -
17/07:00pm - - - - - S 46 59 25 32 - - -
17/06:30pm - - - - - S 43 52 23 28 - - -
17/06:17pm - - - - - S 41 59 22 32 - - -
17/06:00pm - - - - - S 43 52 23 28 - - -
17/05:30pm - - - - - S 46 54 25 29 - - -
17/05:00pm - - - - - S 48 54 26 29 - - -
17/04:30pm - - - - - S 46 59 25 32 - - -
17/04:00pm - - - - - S 46 57 25 31 - - -

Other Formats:

Comma delimited format used in spreadsheet applications
http://www.bom.gov.au/fwo/IDV60801/IDV60801.95872.axf

JavaScript Object Notation format (JSON) in row-major order
http://www.bom.gov.au/fwo/IDV60801/IDV60801.95872.json